Coban, Guatemala
Current Conditions -  °F | °C
As of 12:00 PM on Friday 24 Oct 2014 (Local Time) from MGGT Reporting Station
Overcast Overcast  
Wind Chill: 75°   Ceiling: 20000
Heat Index: 75°   Visibility: 6mi
Dew Point: 59°   Wind: 14mph
Humidity: 57%   Direction: 360°N
Pressure: 30.24"   Gusts: NA
Location:  15.47°N, 90.38°W
Report Text: MGGT 241800Z 36012KT 9999 SCT020 OVC200 24/15 Q1024 A3024
Loading
Personal Weather Stations






























Interactive Weather Map
Tropical Storm Tracking
New forecast layout! Learn more

10-Day Weather Forecast

Advertisements
Track Severe Weather on mobile